Time;durP1;ratioP1;P1;durP2;ratioP2;P2;SDS_P1;SDS_P2;PMS_P1;PMS_P2;Temp;Humidity;BMP_temperature;BMP_pressure;BME280_temperature;BME280_humidity;BME280_pressure;Samples;Min_cycle;Max_cycle;Signal;HPM_P1;HPM_P2
2021/09/14 00:02:05;;;;;;;4.95;4.28;;;;;;;;;;5073475;28;20025;-82
2021/09/14 00:04:31;;;;;;;4.60;3.72;;;;;;;;;;5073198;28;20074;-82
2021/09/14 00:06:58;;;;;;;4.97;4.10;;;;;;;;;;5073347;28;20028;-82
2021/09/14 00:09:24;;;;;;;5.72;4.28;;;;;;;;;;5072960;28;20033;-83
2021/09/14 00:11:50;;;;;;;7.07;4.03;;;;;;;;;;5072973;28;20032;-78
2021/09/14 00:14:16;;;;;;;5.00;4.50;;;;;;;;;;5073497;28;20020;-82
2021/09/14 00:16:42;;;;;;;6.72;4.15;;;;;;;;;;5071563;28;20044;-83
2021/09/14 00:19:08;;;;;;;5.07;4.05;;;;;;;;;;5073130;28;20052;-83
2021/09/14 00:21:34;;;;;;;5.32;4.60;;;;;;;;;;5072819;28;20025;-83
2021/09/14 00:24:00;;;;;;;4.82;3.85;;;;;;;;;;5073076;28;20020;-83
2021/09/14 00:26:26;;;;;;;4.78;4.25;;;;;;;;;;5072455;28;20028;-84
2021/09/14 00:28:52;;;;;;;6.07;4.13;;;;;;;;;;5072859;28;20147;-83
2021/09/14 00:31:18;;;;;;;4.30;3.85;;;;;;;;;;5073042;28;20025;-82
2021/09/14 00:33:44;;;;;;;4.85;3.88;;;;;;;;;;5072455;28;20569;-82
2021/09/14 00:36:10;;;;;;;4.55;3.60;;;;;;;;;;5072609;28;20115;-83
2021/09/14 00:38:36;;;;;;;5.22;4.03;;;;;;;;;;5072292;28;20035;-83
2021/09/14 00:41:02;;;;;;;4.65;3.88;;;;;;;;;;5072121;28;20460;-84
2021/09/14 00:43:28;;;;;;;4.90;4.05;;;;;;;;;;5071740;28;20089;-84
2021/09/14 00:45:54;;;;;;;4.93;4.22;;;;;;;;;;5072433;28;20025;-83
2021/09/14 00:48:20;;;;;;;4.65;4.22;;;;;;;;;;5072412;28;20476;-75
2021/09/14 00:50:46;;;;;;;4.65;3.97;;;;;;;;;;5072602;28;20044;-83
2021/09/14 00:53:14;;;;;;;5.45;4.57;;;;;;;;;;5072492;28;20379;-81
2021/09/14 00:55:40;;;;;;;5.05;4.10;;;;;;;;;;5071773;28;20048;-82
2021/09/14 00:58:06;;;;;;;6.47;4.47;;;;;;;;;;5072254;28;20042;-83
2021/09/14 01:00:32;;;;;;;6.80;5.07;;;;;;;;;;5071858;28;20168;-82
2021/09/14 01:02:58;;;;;;;6.18;4.32;;;;;;;;;;5072141;28;20139;-83
2021/09/14 01:05:25;;;;;;;6.05;4.25;;;;;;;;;;5071998;28;20024;-83
2021/09/14 01:07:51;;;;;;;5.55;4.18;;;;;;;;;;5071927;28;20100;-81
2021/09/14 01:10:17;;;;;;;6.22;4.15;;;;;;;;;;5072344;28;20162;-83
2021/09/14 01:12:43;;;;;;;6.22;3.95;;;;;;;;;;5071932;28;20037;-83
2021/09/14 01:15:09;;;;;;;4.32;3.92;;;;;;;;;;5072053;28;20021;-83
2021/09/14 01:17:35;;;;;;;4.40;3.80;;;;;;;;;;5071745;28;20412;-82
2021/09/14 01:20:01;;;;;;;5.35;4.45;;;;;;;;;;5071695;28;20021;-83
2021/09/14 01:22:28;;;;;;;4.78;4.00;;;;;;;;;;5071512;28;20032;-83
2021/09/14 01:24:54;;;;;;;5.80;4.85;;;;;;;;;;5071748;28;20028;-83
2021/09/14 01:27:20;;;;;;;5.53;4.70;;;;;;;;;;5071823;28;20035;-75
2021/09/14 01:32:31;;;;;;;5.15;4.45;;;;;;;;;;5071439;28;20039;-83
2021/09/14 01:35:30;;;;;;;4.55;4.15;;;;;;;;;;5071634;28;20471;-83
2021/09/14 01:37:56;;;;;;;5.15;4.13;;;;;;;;;;5059458;28;20052;-83
2021/09/14 01:40:23;;;;;;;4.40;4.00;;;;;;;;;;5071246;28;20020;-83
2021/09/14 01:42:49;;;;;;;6.03;4.40;;;;;;;;;;5071828;28;20024;-84
2021/09/14 01:45:15;;;;;;;4.95;3.92;;;;;;;;;;5071751;28;20024;-84
2021/09/14 01:47:41;;;;;;;4.97;4.07;;;;;;;;;;5071344;28;20082;-83
2021/09/14 01:50:09;;;;;;;5.60;4.47;;;;;;;;;;5071471;28;20052;-83
2021/09/14 01:52:35;;;;;;;8.13;4.68;;;;;;;;;;5070887;28;20031;-83
2021/09/14 01:55:02;;;;;;;5.90;4.75;;;;;;;;;;5071350;28;20435;-82
2021/09/14 01:57:33;;;;;;;5.03;4.43;;;;;;;;;;5070950;28;20032;-82
2021/09/14 02:00:00;;;;;;;5.82;5.15;;;;;;;;;;5071251;28;20082;-82
2021/09/14 02:05:07;;;;;;;6.30;4.50;;;;;;;;;;5071240;28;20029;-82
2021/09/14 03:00:37;;;;;;;5.43;4.55;;;;;;;;;;5070339;28;20031;-83
2021/09/14 03:03:04;;;;;;;5.75;4.10;;;;;;;;;;5069203;28;20115;-83
2021/09/14 03:05:31;;;;;;;5.38;4.32;;;;;;;;;;5071815;28;20054;-84
2021/09/14 03:07:57;;;;;;;5.63;4.40;;;;;;;;;;5074367;28;20117;-83
2021/09/14 03:10:23;;;;;;;5.57;4.60;;;;;;;;;;5074167;28;20086;-84
2021/09/14 03:12:49;;;;;;;5.57;4.97;;;;;;;;;;5074546;28;20082;-83
2021/09/14 03:15:15;;;;;;;6.03;4.85;;;;;;;;;;5074394;28;20435;-83
2021/09/14 03:17:41;;;;;;;5.05;4.53;;;;;;;;;;5073899;28;20040;-84
2021/09/14 03:20:07;;;;;;;5.30;4.45;;;;;;;;;;5074208;28;20396;-83
2021/09/14 03:22:33;;;;;;;6.38;4.55;;;;;;;;;;5073721;28;20028;-84
2021/09/14 03:24:59;;;;;;;5.53;4.78;;;;;;;;;;5073036;28;20016;-81
2021/09/14 03:27:25;;;;;;;6.40;5.35;;;;;;;;;;5074116;28;20146;-84
2021/09/14 03:29:51;;;;;;;6.47;4.78;;;;;;;;;;5073670;28;20111;-80
2021/09/14 03:32:17;;;;;;;5.95;4.63;;;;;;;;;;5072864;28;20123;-82
2021/09/14 03:34:43;;;;;;;6.07;4.45;;;;;;;;;;5073550;28;20079;-81
2021/09/14 03:37:09;;;;;;;7.38;5.22;;;;;;;;;;5073767;28;20480;-82
2021/09/14 03:39:35;;;;;;;4.70;4.20;;;;;;;;;;5073466;28;20035;-84
2021/09/14 03:42:01;;;;;;;4.88;4.35;;;;;;;;;;5073829;28;20025;-83
2021/09/14 03:44:27;;;;;;;5.95;5.07;;;;;;;;;;5072326;28;20024;-83
2021/09/14 03:46:53;;;;;;;5.90;4.50;;;;;;;;;;5073387;28;20032;-83
2021/09/14 03:49:19;;;;;;;6.97;4.95;;;;;;;;;;5073769;28;20056;-84
2021/09/14 03:51:45;;;;;;;5.40;4.55;;;;;;;;;;5073099;28;20503;-82
2021/09/14 03:54:11;;;;;;;5.63;4.63;;;;;;;;;;5072305;28;20396;-84
2021/09/14 03:56:37;;;;;;;5.75;4.78;;;;;;;;;;5072906;28;20121;-81
2021/09/14 03:59:03;;;;;;;6.20;4.45;;;22.20;88.70;;;;;;5073326;28;20059;-84
2021/09/14 04:01:33;;;;;;;5.22;4.68;;;21.80;86.70;;;;;;5073574;28;20050;-85
2021/09/14 04:04:08;;;;;;;5.95;5.15;;;21.70;86.50;;;;;;5073250;28;20016;-84
2021/09/14 04:09:17;;;;;;;6.45;4.80;;;21.70;86.50;;;;;;5073583;28;20086;-84
2021/09/14 04:11:43;;;;;;;6.32;4.75;;;21.70;86.40;;;;;;5072649;28;20025;-84
2021/09/14 04:14:09;;;;;;;5.07;4.43;;;21.70;86.30;;;;;;5073011;28;20126;-84
2021/09/14 04:16:35;;;;;;;5.93;5.07;;;21.70;86.30;;;;;;5072571;28;20488;-84
2021/09/14 04:19:01;;;;;;;6.20;5.38;;;;;;;;;;5073170;28;20399;-84
2021/09/14 04:21:27;;;;;;;5.18;4.68;;;;;;;;;;5073050;28;20119;-83
2021/09/14 04:23:53;;;;;;;6.22;4.80;;;;;;;;;;5072698;28;20317;-84
2021/09/14 04:26:19;;;;;;;5.82;4.90;;;;;;;;;;5073269;28;20455;-84
2021/09/14 04:28:45;;;;;;;5.75;5.05;;;;;;;;;;5072701;28;20051;-83
2021/09/14 04:31:11;;;;;;;5.60;4.55;;;;;;;;;;5072651;28;20024;-80
2021/09/14 04:33:38;;;;;;;5.93;5.13;;;;;;;;;;5072347;28;20029;-81
2021/09/14 04:36:04;;;;;;;6.25;5.22;;;;;;;;;;5072792;28;20020;-83
2021/09/14 04:38:30;;;;;;;4.78;4.28;;;;;;;;;;5072604;28;20032;-83
2021/09/14 04:40:56;;;;;;;5.22;4.65;;;;;;;;;;5072333;28;20025;-84
2021/09/14 04:43:22;;;;;;;5.68;4.65;;;;;;;;;;5072808;28;20381;-83
2021/09/14 04:45:49;;;;;;;5.53;4.68;;;;;;;;;;5072513;28;20388;-83
2021/09/14 04:48:15;;;;;;;7.07;4.43;;;;;;;;;;5072428;28;20028;-83
2021/09/14 04:50:41;;;;;;;5.20;4.53;;;;;;;;;;5071035;28;20488;-83
2021/09/14 04:53:07;;;;;;;6.65;5.43;;;;;;;;;;5072404;28;20032;-81
2021/09/14 04:55:33;;;;;;;7.05;5.32;;;;;;;;;;5072192;28;20024;-74
2021/09/14 04:57:59;;;;;;;5.68;4.68;;;;;;;;;;5072184;28;20393;-83
2021/09/14 05:00:25;;;;;;;5.07;4.28;;;;;;;;;;5072121;28;20020;-80
2021/09/14 05:02:52;;;;;;;4.80;4.15;;;;;;;;;;5072300;28;20075;-82
2021/09/14 05:05:18;;;;;;;7.25;4.60;;;;;;;;;;5072127;28;20033;-82
2021/09/14 05:07:44;;;;;;;5.53;4.40;;;;;;;;;;5071853;28;20144;-82
2021/09/14 05:10:10;;;;;;;5.47;4.55;;;;;;;;;;5071955;28;20449;-83
2021/09/14 05:12:36;;;;;;;5.22;4.68;;;;;;;;;;5071760;28;20020;-83
2021/09/14 05:15:03;;;;;;;5.47;4.93;;;;;;;;;;5072079;28;20047;-83
2021/09/14 05:17:29;;;;;;;5.85;4.75;;;;;;;;;;5071615;28;20029;-82
2021/09/14 05:19:55;;;;;;;5.68;4.68;;;;;;;;;;5071606;28;20025;-74
2021/09/14 05:22:28;;;;;;;4.88;4.20;;;;;;;;;;5072074;28;20388;-81
2021/09/14 05:24:54;;;;;;;6.82;5.20;;;;;;;;;;5071731;28;20025;-84
2021/09/14 05:27:20;;;;;;;5.78;4.07;;;;;;;;;;5071759;28;20078;-83
2021/09/14 05:29:46;;;;;;;5.20;4.68;;;;;;;;;;5068783;28;20028;-73
2021/09/14 05:32:14;;;;;;;5.88;5.00;;;;;;;;;;5066015;28;20049;-84
2021/09/14 05:34:40;;;;;;;4.95;4.45;;;;;;;;;;5051626;28;20039;-85
2021/09/14 05:37:06;;;;;;;6.97;5.40;;;;;;;;;;5063582;28;20119;-83
2021/09/14 05:39:32;;;;;;;6.13;4.60;;;;;;;;;;5071201;28;20032;-82
2021/09/14 05:41:58;;;;;;;7.63;4.72;;;;;;;;;;5071333;28;20033;-83
2021/09/14 05:44:24;;;;;;;6.25;4.55;;;;;;;;;;5071736;28;20455;-81
2021/09/14 05:46:50;;;;;;;5.32;4.30;;;;;;;;;;5070075;28;20048;-81
2021/09/14 05:49:16;;;;;;;5.88;4.82;;;;;;;;;;5070072;28;20409;-83
2021/09/14 05:51:42;;;;;;;5.50;4.28;;;;;;;;;;5071151;28;20024;-84
2021/09/14 05:54:08;;;;;;;5.18;4.43;;;;;;;;;;5071294;28;20090;-83
2021/09/14 05:56:34;;;;;;;6.93;4.63;;;;;;;;;;5070889;28;20108;-81
2021/09/14 05:59:00;;;;;;;5.35;4.60;;;;;;;;;;5070495;28;20056;-83
2021/09/14 06:01:27;;;;;;;7.35;4.85;;;;;;;;;;5069892;28;20016;-84
2021/09/14 06:03:53;;;;;;;5.25;4.63;;;;;;;;;;5069986;28;20032;-86
2021/09/14 06:06:19;;;;;;;8.18;5.28;;;;;;;;;;5070139;28;20104;-82
2021/09/14 06:08:45;;;;;;;8.18;6.38;;;;;;;;;;5070692;28;20480;-83
2021/09/14 06:11:11;;;;;;;7.70;6.32;;;;;;;;;;5069866;28;20029;-76
2021/09/14 06:13:37;;;;;;;7.88;6.50;;;;;;;;;;5068620;28;20036;-78
2021/09/14 06:16:04;;;;;;;9.05;7.07;;;;;;;;;;5069697;28;20094;-80
2021/09/14 06:18:30;;;;;;;7.80;7.00;;;;;;;;;;5070271;28;20047;-82
2021/09/14 06:20:56;;;;;;;12.88;8.38;;;;;;;;;;5070600;28;20403;-79
2021/09/14 06:23:22;;;;;;;9.18;7.88;;;;;;;;;;5071244;28;20102;-76
2021/09/14 06:25:48;;;;;;;9.80;7.78;;;;;;;;;;5075144;28;20020;-73
2021/09/14 06:28:14;;;;;;;14.77;9.23;;;;;;;;;;5071108;28;20052;-73
2021/09/14 06:30:40;;;;;;;13.65;9.15;;;;;;;;;;5070518;28;20043;-77
2021/09/14 06:33:06;;;;;;;15.00;11.00;;;;;;;;;;5070196;28;20395;-75
2021/09/14 06:35:35;;;;;;;19.48;10.10;;;;;;;;;;5069783;28;20111;-84
2021/09/14 06:38:01;;;;;;;16.35;10.65;;;;;;;;;;5069728;28;20486;-88
2021/09/14 06:40:27;;;;;;;13.80;10.18;;;;;;;;;;5072805;28;20104;-77
2021/09/14 06:42:53;;;;;;;14.85;11.07;;;;;;;;;;5074765;28;20033;-87
2021/09/14 06:45:19;;;;;;;15.43;11.20;;;;;;;;;;5074850;28;20050;-86
2021/09/14 06:47:45;;;;;;;11.85;10.15;;;;;;;;;;5062636;28;20085;-83
2021/09/14 06:50:11;;;;;;;16.33;10.65;;;;;;;;;;5069833;28;20077;-83
2021/09/14 06:52:38;;;;;;;18.60;11.73;;;;;;;;;;5064260;28;20086;-84
2021/09/14 06:55:05;;;;;;;13.63;10.50;;;;;;;;;;5054492;28;20029;-85
2021/09/14 06:57:31;;;;;;;14.32;11.02;;;;;;;;;;5054288;28;20037;-83
2021/09/14 06:59:57;;;;;;;12.50;9.48;;;;;;;;;;5054654;28;20162;-82
2021/09/14 07:02:23;;;;;;;14.73;9.55;;;;;;;;;;5054332;28;20036;-85
2021/09/14 07:04:49;;;;;;;11.57;8.30;;;;;;;;;;5054309;28;20388;-85
2021/09/14 07:07:15;;;;;;;11.25;8.98;;;;;;;;;;5054374;28;20512;-85
2021/09/14 07:09:41;;;;;;;10.73;8.60;;;;;;;;;;5052594;28;20013;-85
2021/09/14 07:12:07;;;;;;;11.70;8.23;;;;;;;;;;5064621;28;20043;-83
2021/09/14 07:14:33;;;;;;;10.88;7.75;;;;;;;;;;5071511;28;20020;-81
2021/09/14 07:16:59;;;;;;;13.30;8.60;;;;;;;;;;5065309;28;20087;-87
2021/09/14 07:19:25;;;;;;;11.75;8.13;;;;;;;;;;5054477;28;20029;-87
2021/09/14 07:21:51;;;;;;;13.05;7.75;;;;;;;;;;5053612;28;20029;-86
2021/09/14 07:24:17;;;;;;;11.18;7.85;;;;;;;;;;5053695;28;20029;-83
2021/09/14 07:26:43;;;;;;;12.82;7.07;;;;;;;;;;5053977;28;20078;-85
2021/09/14 07:29:09;;;;;;;11.75;7.28;;;;;;;;;;5054126;28;20028;-85
2021/09/14 07:31:36;;;;;;;11.05;7.05;;;;;;;;;;5054755;28;20029;-85
2021/09/14 07:34:02;;;;;;;7.57;6.05;;;;;;;;;;5053771;28;20021;-85
2021/09/14 07:36:28;;;;;;;8.63;6.50;;;;;;;;;;5053917;28;20040;-86
2021/09/14 07:38:54;;;;;;;8.38;6.68;;;;;;;;;;5053494;28;20033;-85
2021/09/14 07:41:20;;;;;;;10.27;6.45;;;;;;;;;;5054658;28;20051;-85
2021/09/14 07:43:46;;;;;;;11.05;6.30;;;;;;;;;;5053241;28;20025;-85
2021/09/14 07:46:12;;;;;;;9.52;5.97;;;;;;;;;;5053674;28;20029;-86
2021/09/14 07:48:38;;;;;;;8.60;6.13;;;;;;;;;;5053482;28;20028;-85
2021/09/14 07:51:04;;;;;;;8.25;6.32;;;;;;;;;;5052606;28;20025;-84
2021/09/14 07:53:30;;;;;;;10.43;6.20;;;;;;;;;;5053661;28;20029;-85
2021/09/14 07:55:56;;;;;;;8.80;5.93;;;;;;;;;;5053415;28;20550;-86
2021/09/14 07:58:22;;;;;;;10.50;5.88;;;;;;;;;;5051837;28;20032;-86
2021/09/14 08:00:48;;;;;;;10.05;6.47;;;;;;;;;;5053181;28;20071;-86
2021/09/14 08:03:14;;;;;;;7.93;5.68;;;;;;;;;;5054219;28;20079;-83
2021/09/14 08:05:40;;;;;;;8.25;6.35;;;;;;;;;;5052956;28;20554;-85
2021/09/14 08:08:07;;;;;;;7.13;5.15;;;;;;;;;;5053202;28;20025;-82
2021/09/14 08:10:34;;;;;;;6.13;5.05;;;;;;;;;;5053089;28;20078;-79
2021/09/14 08:13:00;;;;;;;7.05;5.40;;;;;;;;;;5053065;28;20036;-84
2021/09/14 08:15:26;;;;;;;7.55;5.32;;;;;;;;;;5053651;28;20018;-81
2021/09/14 08:17:52;;;;;;;6.70;5.15;;;;;;;;;;5053713;28;20381;-80
2021/09/14 08:20:18;;;;;;;10.27;5.60;;;;;;;;;;5052967;28;20033;-79
2021/09/14 08:22:44;;;;;;;6.28;4.28;;;;;;;;;;5061844;28;20029;-81
2021/09/14 08:25:11;;;;;;;6.15;4.90;;;;;;;;;;5073012;28;20024;-82
2021/09/14 08:27:37;;;;;;;8.98;4.65;;;;;;;;;;5072410;28;20028;-83
2021/09/14 08:30:06;;;;;;;7.63;4.78;;;;;;;;;;5072890;28;20020;-82
2021/09/14 08:32:32;;;;;;;7.75;4.82;;;;;;;;;;5070975;28;20029;-80
2021/09/14 08:34:58;;;;;;;8.43;5.47;;;;;;;;;;5072879;28;20036;-80
2021/09/14 08:37:24;;;;;;;7.38;5.07;;;;;;;;;;5071268;28;20032;-81
2021/09/14 08:39:50;;;;;;;6.30;4.72;;;;;;;;;;5072253;28;20128;-77
2021/09/14 08:42:16;;;;;;;5.95;4.35;;;;;;;;;;5072344;28;20107;-75
2021/09/14 08:44:43;;;;;;;5.75;5.07;;;;;;;;;;5072421;28;20516;-74
2021/09/14 08:47:09;;;;;;;7.15;4.82;;;;;;;;;;5070701;28;20029;-76
2021/09/14 08:49:36;;;;;;;7.40;4.72;;;;;;;;;;5072188;28;20027;-78
2021/09/14 08:52:02;;;;;;;8.70;5.03;;;;;;;;;;5072303;28;20024;-74
2021/09/14 08:54:28;;;;;;;6.88;4.53;;;;;;;;;;5072718;28;20108;-73
2021/09/14 08:56:54;;;;;;;5.57;4.63;;;;;;;;;;5070857;28;20397;-79
2021/09/14 08:59:31;;;;;;;7.18;4.63;;;;;;;;;;5070286;28;20025;-78
2021/09/14 09:01:59;;;;;;;6.75;4.97;;;;;;;;;;5074700;28;20082;-80
2021/09/14 09:04:25;;;;;;;5.70;3.92;;;;;;;;;;5052292;28;20029;-84
2021/09/14 09:06:51;;;;;;;4.75;3.97;;;;;;;;;;5065129;28;20375;-84
2021/09/14 09:09:18;;;;;;;5.45;3.90;;;;;;;;;;5071715;28;20028;-88
2021/09/14 09:11:53;;;;;;;5.75;3.88;;;;;;;;;;5071463;28;20025;-81
2021/09/14 09:14:19;;;;;;;8.02;4.10;;;;;;;;;;5070079;28;20025;-87
2021/09/14 09:16:45;;;;;;;7.15;4.47;;;;;;;;;;5071447;28;20032;-87
2021/09/14 09:19:11;;;;;;;5.10;3.75;;;;;;;;;;5071365;28;20033;-86
2021/09/14 09:21:38;;;;;;;7.20;4.20;;;;;;;;;;5070510;28;20031;-84
2021/09/14 09:24:06;;;;;;;6.20;3.92;;;;;;;;;;5070832;28;20512;-78
2021/09/14 09:26:35;;;;;;;4.20;3.70;;;;;;;;;;5071012;28;20025;-85
2021/09/14 09:29:04;;;;;;;5.13;4.40;;;;;;;;;;5069800;28;20029;-83
2021/09/14 09:31:30;;;;;;;6.30;3.90;;;;;;;;;;5071554;28;20365;-78
2021/09/14 09:34:06;;;;;;;6.40;3.90;;;;;;;;;;5069986;28;20029;-87
2021/09/14 09:36:35;;;;;;;5.53;3.78;;;;;;;;;;5070561;28;20170;-84
2021/09/14 09:39:03;;;;;;;5.03;3.88;;;;;;;;;;5068882;28;20105;-87
2021/09/14 09:41:33;;;;;;;7.18;4.13;;;;;;;;;;5069663;28;20052;-86
2021/09/14 09:44:06;;;;;;;5.93;3.65;;;;;;;;;;5071003;28;20036;-86
2021/09/14 09:46:32;;;;;;;5.07;3.80;;;;;;;;;;5070897;28;20396;-86
2021/09/14 09:49:03;;;;;;;7.22;3.83;;;;;;;;;;5071407;28;20108;-87
2021/09/14 09:51:30;;;;;;;5.32;3.70;;;;;;;;;;5071174;28;20610;-81
2021/09/14 09:53:56;;;;;;;5.03;4.03;;;;;;;;;;5070651;28;20027;-85
2021/09/14 09:56:23;;;;;;;5.35;3.70;;;;;;;;;;5069984;28;20033;-87
2021/09/14 09:58:50;;;;;;;4.80;3.72;;;;;;;;;;5070830;28;20028;-86
2021/09/14 10:01:17;;;;;;;4.90;3.80;;;;;;;;;;5071020;28;20036;-87
2021/09/14 10:04:07;;;;;;;5.00;3.30;;;;;;;;;;5070406;28;20039;-86
2021/09/14 10:06:35;;;;;;;4.50;3.65;;;;;;;;;;5052682;28;20041;-87
2021/09/14 10:09:01;;;;;;;4.35;3.53;;;;;;;;;;5071526;28;20384;-85
2021/09/14 10:11:28;;;;;;;4.22;3.65;;;;;;;;;;5071049;28;20033;-88
2021/09/14 10:14:14;;;;;;;4.30;3.63;;;;;;;;;;5070565;28;20021;-83
2021/09/14 10:16:48;;;;;;;4.88;3.30;;;;;;;;;;5068667;28;20040;-82
2021/09/14 10:19:31;;;;;;;5.82;4.00;;;;;;;;;;5071068;28;20380;-85
2021/09/14 10:22:03;;;;;;;4.68;3.35;;;;;;;;;;5069720;28;20039;-79
2021/09/14 10:24:29;;;;;;;4.70;3.33;;;;;;;;;;5070819;28;20017;-84
2021/09/14 10:27:05;;;;;;;4.30;3.55;;;;;;;;;;5068887;28;20052;-81
2021/09/14 10:29:32;;;;;;;4.72;3.65;;;;;;;;;;5071245;28;20016;-83
2021/09/14 10:32:08;;;;;;;5.75;3.70;;;;;;;;;;5069746;28;20085;-83
2021/09/14 10:34:36;;;;;;;3.78;3.05;;;;;;;;;;5070598;28;20024;-81
2021/09/14 10:37:07;;;;;;;5.50;3.55;;;;;;;;;;5071122;28;20043;-83
2021/09/14 10:39:35;;;;;;;4.32;3.10;;;;;;;;;;5070987;28;20060;-88
2021/09/14 10:42:11;;;;;;;3.88;3.17;;;;;;;;;;5070788;28;20032;-84
2021/09/14 10:44:37;;;;;;;3.80;3.10;;;;;;;;;;5070573;28;20527;-87
2021/09/14 10:47:08;;;;;;;4.30;3.28;;;;;;;;;;5070271;28;20028;-86
2021/09/14 10:49:44;;;;;;;5.60;3.70;;;;;;;;;;5074577;28;20020;-84
2021/09/14 10:52:10;;;;;;;5.50;3.25;;;;;;;;;;5083631;28;20052;-83
2021/09/14 10:54:43;;;;;;;4.63;3.33;;;;;;;;;;5070649;28;20393;-81
2021/09/14 10:57:09;;;;;;;4.90;3.30;;;;;;;;;;5071218;28;20141;-84
2021/09/14 10:59:35;;;;;;;4.65;3.72;;;;;;;;;;5070900;28;20034;-81
2021/09/14 11:02:03;;;;;;;4.60;3.13;;;;;;;;;;5071031;28;20550;-78
2021/09/14 11:04:29;;;;;;;5.50;3.35;;;;;;;;;;5070935;28;20481;-89
2021/09/14 11:06:55;;;;;;;4.57;3.00;;;;;;;;;;5070610;28;20507;-90
2021/09/14 11:09:24;;;;;;;4.82;3.28;;;;;;;;;;5070736;28;20497;-85
2021/09/14 11:11:51;;;;;;;3.72;3.15;;;;;;;;;;5070395;28;20551;-81
2021/09/14 11:14:17;;;;;;;4.00;3.08;;;;;;;;;;5071063;28;20016;-87
2021/09/14 11:16:46;;;;;;;3.90;3.25;;;;;;;;;;5070329;28;20028;-89
2021/09/14 11:19:12;;;;;;;4.75;3.28;;;;;;;;;;5070472;28;20021;-88
2021/09/14 11:21:45;;;;;;;3.47;2.83;;;;;;;;;;5070359;28;20024;-87
2021/09/14 11:24:11;;;;;;;3.70;2.90;;;;;;;;;;5069152;28;20103;-87
2021/09/14 11:26:37;;;;;;;4.05;2.60;;;;;;;;;;5070317;28;20178;-87
2021/09/14 11:29:03;;;;;;;4.00;2.78;;;;;;;;;;5072437;28;20036;-88
2021/09/14 11:31:30;;;;;;;3.97;2.72;;;;;;;;;;5074837;28;20020;-87
2021/09/14 11:33:57;;;;;;;5.32;2.88;;;;;;;;;;5072015;28;20040;-86
2021/09/14 11:36:23;;;;;;;4.10;3.08;;;;;;;;;;5073489;28;20029;-87
2021/09/14 11:39:03;;;;;;;3.80;3.28;;;;;;;;;;5073400;28;20033;-84
2021/09/14 11:41:36;;;;;;;2.90;2.40;;;;;;;;;;5073960;28;20023;-80
2021/09/14 11:44:03;;;;;;;3.80;2.40;;;;;;;;;;5074146;28;20029;-88
2021/09/14 11:46:29;;;;;;;3.78;3.00;;;;;;;;;;5074005;28;20104;-85
2021/09/14 11:49:02;;;;;;;4.40;3.05;;;;;;;;;;5071994;28;20070;-86
2021/09/14 11:51:29;;;;;;;4.45;2.85;;;;;;;;;;5074226;28;20397;-86
2021/09/14 11:53:55;;;;;;;4.78;2.70;;;;;;;;;;5072535;28;20064;-85
2021/09/14 11:56:26;;;;;;;3.65;2.70;;;;;;;;;;5073622;28;20476;-87
2021/09/14 11:58:52;;;;;;;4.60;2.70;;;;;;;;;;5073334;28;20032;-87
2021/09/14 12:01:19;;;;;;;4.30;3.10;;;;;;;;;;5072883;28;20024;-86
2021/09/14 12:03:46;;;;;;;3.67;2.70;;;;;;;;;;5073268;28;20029;-87
2021/09/14 12:06:13;;;;;;;4.07;2.55;;;;;;;;;;5072948;28;20025;-86
2021/09/14 12:08:40;;;;;;;3.75;2.80;;;;;;;;;;5072544;28;20024;-85
2021/09/14 12:11:06;;;;;;;5.18;2.20;;;;;;;;;;5073044;28;20400;-87
2021/09/14 12:13:39;;;;;;;3.85;2.63;;;;;;;;;;5073623;28;20024;-87
2021/09/14 12:16:08;;;;;;;5.07;2.88;;;;;;;;;;5072532;28;20027;-85
2021/09/14 12:18:34;;;;;;;3.92;2.42;;;;;;;;;;5072761;28;20051;-86
2021/09/14 12:21:00;;;;;;;4.07;2.40;;;;;;;;;;5072874;28;20032;-87
2021/09/14 12:23:26;;;;;;;3.55;2.65;;;;;;;;;;5072770;28;20028;-87
2021/09/14 12:25:52;;;;;;;3.78;2.50;;;;;;;;;;5072784;28;20488;-87
2021/09/14 12:28:18;;;;;;;3.97;2.50;;;;;;;;;;5073124;28;20384;-86
2021/09/14 12:30:44;;;;;;;4.35;2.22;;;;;;;;;;5072764;28;20024;-87
2021/09/14 12:33:10;;;;;;;5.00;2.63;;;;;;;;;;5072256;28;20085;-86
2021/09/14 12:35:37;;;;;;;3.47;2.15;;;;;;;;;;5072627;28;20029;-86
2021/09/14 12:38:03;;;;;;;3.38;2.38;;;;;;;;;;5072890;28;20115;-86
2021/09/14 12:40:29;;;;;;;2.85;2.35;;;;;;;;;;5073064;28;20052;-86
2021/09/14 12:42:55;;;;;;;3.22;2.42;;;;;;;;;;5072477;28;20492;-86
2021/09/14 12:45:21;;;;;;;2.92;2.28;;;;;;;;;;5072010;28;20052;-86
2021/09/14 12:47:47;;;;;;;2.90;2.15;;;;;;;;;;5058581;28;20490;-88
2021/09/14 12:50:13;;;;;;;2.75;2.28;;;;;;;;;;5051562;28;20083;-89
2021/09/14 12:52:40;;;;;;;3.00;2.35;;;;;;;;;;5052544;28;20022;-89
2021/09/14 12:55:06;;;;;;;4.05;2.33;;;;;;;;;;5062794;28;20031;-90
2021/09/14 12:57:32;;;;;;;3.40;2.40;;;;;;;;;;5072524;28;20527;-90
2021/09/14 12:59:58;;;;;;;2.78;2.40;;;;;;;;;;5072119;28;20507;-87
2021/09/14 13:02:24;;;;;;;3.50;2.58;;;;;;;;;;5072074;28;20033;-89
2021/09/14 13:04:50;;;;;;;2.95;2.30;;;;;;;;;;5071793;28;20017;-88
2021/09/14 13:07:16;;;;;;;4.70;2.20;;;;;;;;;;5070212;28;20043;-86
2021/09/14 13:09:42;;;;;;;2.63;2.08;;;;;;;;;;5072068;28;20105;-84
2021/09/14 13:12:10;;;;;;;2.67;2.30;;;;;;;;;;5072287;28;20036;-85
2021/09/14 13:17:21;;;;;;;2.85;2.20;;;;;;;;;;5071870;28;20040;-86
2021/09/14 13:19:47;;;;;;;2.85;2.08;;;;;;;;;;5071809;28;20099;-84
2021/09/14 13:22:13;;;;;;;3.50;1.95;;;;;;;;;;5072179;28;20020;-84
2021/09/14 13:24:39;;;;;;;2.92;2.00;;;;;;;;;;5071753;28;20048;-88
2021/09/14 13:27:05;;;;;;;2.55;1.90;;;;;;;;;;5071834;28;20021;-84
2021/09/14 13:29:31;;;;;;;3.00;2.03;;;;;;;;;;5071337;28;20032;-85
2021/09/14 13:31:57;;;;;;;4.97;2.38;;;;;;;;;;5070879;28;20492;-84
2021/09/14 13:34:23;;;;;;;3.50;2.15;;;;;;;;;;5070166;28;20033;-82
2021/09/14 13:36:49;;;;;;;3.17;2.25;;;;;;;;;;5071291;28;20047;-82
2021/09/14 13:39:15;;;;;;;2.78;2.03;;;;;;;;;;5071641;28;20020;-81
2021/09/14 13:41:47;;;;;;;3.05;2.10;;;;;;;;;;5071268;28;20078;-86
2021/09/14 13:46:59;;;;;;;2.55;1.92;;;;;;;;;;5071433;28;20499;-82
2021/09/14 13:49:25;;;;;;;3.13;1.85;;;;;;;;;;5071170;28;20020;-78
2021/09/14 13:51:52;;;;;;;3.60;2.60;;;;;;;;;;5071366;28;20020;-85
2021/09/14 13:54:18;;;;;;;2.88;2.05;;;;;;;;;;5069542;28;20028;-82
2021/09/14 13:56:44;;;;;;;2.58;2.15;;;;;;;;;;5068899;28;20115;-79
2021/09/14 13:59:10;;;;;;;2.17;1.80;;;;;;;;;;5071421;28;20107;-87
2021/09/14 14:01:36;;;;;;;2.33;1.80;;;;;;;;;;5071128;28;20467;-89
2021/09/14 14:04:02;;;;;;;3.58;2.05;;;;;;;;;;5071764;28;20069;-89
2021/09/14 14:06:28;;;;;;;2.50;1.70;;;;;;;;;;5071126;28;20408;-90
2021/09/14 14:08:54;;;;;;;2.45;1.70;;;;;;;;;;5070862;28;20176;-89
2021/09/14 14:11:20;;;;;;;2.33;1.98;;;;;;;;;;5071046;28;20100;-89
2021/09/14 14:13:46;;;;;;;2.53;1.90;;;;;;;;;;5071036;28;20098;-86
2021/09/14 14:16:13;;;;;;;2.90;2.00;;;;;;;;;;5071240;28;20051;-88
2021/09/14 14:18:39;;;;;;;2.13;1.90;;;;;;;;;;5070938;28;20035;-89
2021/09/14 14:21:05;;;;;;;2.80;1.80;;;;;;;;;;5071157;28;20027;-87
2021/09/14 14:23:32;;;;;;;3.67;2.03;;;;;;;;;;5071667;28;20070;-89
2021/09/14 14:25:58;;;;;;;3.90;1.83;;;;;;;;;;5071013;28;20025;-88
2021/09/14 14:28:24;;;;;;;2.67;2.10;;;;;;;;;;5071060;28;20484;-89
2021/09/14 14:30:50;;;;;;;2.50;1.60;;;;;;;;;;5070600;28;20465;-90
2021/09/14 14:33:16;;;;;;;1.95;1.63;;;;;;;;;;5069739;28;20031;-87
2021/09/14 14:35:42;;;;;;;4.00;2.47;;;;;;;;;;5070397;28;20024;-89
2021/09/14 14:38:08;;;;;;;2.70;1.85;;;;;;;;;;5069577;28;20033;-89
2021/09/14 14:40:34;;;;;;;3.20;1.80;;;;;;;;;;5069619;28;20473;-90
2021/09/14 14:43:00;;;;;;;3.00;1.92;;;;;;;;;;5071361;28;20028;-85
2021/09/14 14:45:26;;;;;;;2.72;1.90;;;;;;;;;;5070642;28;20087;-86
2021/09/14 14:47:53;;;;;;;3.75;2.25;;;;;;;;;;5070548;28;20024;-85
2021/09/14 14:50:20;;;;;;;2.70;1.88;;;;;;;;;;5070736;28;20024;-86
2021/09/14 14:52:47;;;;;;;3.25;2.13;;;;;;;;;;5069564;28;20098;-87
2021/09/14 14:55:13;;;;;;;3.80;1.95;;;;;;;;;;5070645;28;20487;-89
2021/09/14 14:57:40;;;;;;;2.53;1.73;;;;;;;;;;5070445;28;20411;-87
2021/09/14 15:00:07;;;;;;;3.72;1.90;;;;;;;;;;5069476;28;20456;-86
2021/09/14 15:02:33;;;;;;;3.30;2.03;;;;;;;;;;5074091;28;20029;-89
2021/09/14 15:04:59;;;;;;;2.20;1.60;;;;;;;;;;5074967;28;20049;-84
2021/09/14 15:07:25;;;;;;;3.17;2.03;;;;;;;;;;5073922;28;20056;-84
2021/09/14 15:09:51;;;;;;;2.53;1.90;;;;;;;;;;5073748;28;20032;-89
2021/09/14 15:12:17;;;;;;;2.20;1.80;;;;;;;;;;5073162;28;20542;-85
2021/09/14 15:14:44;;;;;;;2.92;1.33;;;;;;;;;;5074230;28;20027;-86
2021/09/14 15:17:10;;;;;;;4.53;1.60;;;;;;;;;;5074269;28;20023;-86
2021/09/14 15:19:36;;;;;;;2.20;1.60;;;;;;;;;;5074056;28;20090;-89
2021/09/14 15:22:03;;;;;;;5.65;2.40;;;;;;;;;;5073994;28;20021;-89
2021/09/14 15:24:29;;;;;;;2.33;1.50;;;;;;;;;;5074530;28;20032;-88
2021/09/14 15:26:56;;;;;;;2.25;1.63;;;;;;;;;;5072874;28;20052;-89
2021/09/14 15:29:22;;;;;;;3.30;2.05;;;;;;;;;;5074256;28;20085;-90
2021/09/14 15:31:49;;;;;;;1.85;1.55;;;;;;;;;;5073838;28;20020;-89
2021/09/14 15:34:15;;;;;;;2.60;1.85;;;;;;;;;;5073977;28;20028;-86
2021/09/14 15:36:41;;;;;;;2.20;1.70;;;;;;;;;;5072975;28;20400;-89
2021/09/14 15:39:07;;;;;;;2.65;1.90;;;;;;;;;;5074074;28;20036;-86
2021/09/14 15:41:33;;;;;;;1.90;1.60;;;;;;;;;;5074172;28;20078;-89
2021/09/14 15:44:00;;;;;;;2.78;2.00;;;;;;;;;;5074169;28;20032;-88